Terminal Aerodrome Forecast
Issued by NWS

Home | Current Version | Previous Version | Text Only | Print | Product List | Glossary On
Versions: 1 2 3 4 5 6 7 8 9 10 11 12 13
626
FTUS41 KBTV 301125
TAFRUT
TAF
KRUT 301125Z 3012/0112 VRB06KT P6SM SCT200
     FM301800 06006KT P6SM BKN060 OVC140
     FM302100 VRB06KT P6SM VCSH SCT035 OVC060
     FM010000 13006KT P6SM VCSH SCT030 OVC045
     FM010600 14010KT P6SM VCSH SCT020 OVC030=

USA.gov is the U.S. government's official web portal to all federal, state and local government web resources and services.